Time;durP1;ratioP1;P1;durP2;ratioP2;P2;SDS_P1;SDS_P2;PMS_P1;PMS_P2;Temp;Humidity;BMP_temperature;BMP_pressure;BME280_temperature;BME280_humidity;BME280_pressure;Samples;Min_cycle;Max_cycle;Signal;HPM_P1;HPM_P2
2024/01/14 00:02:55;;;;;;;1.20;1.10;;;20.20;42.20;;;;;;222769;1267;24198;-56
2024/01/14 00:07:59;;;;;;;1.10;1.00;;;20.00;42.70;;;;;;222365;1262;25534;-53
2024/01/14 00:13:03;;;;;;;5.30;1.80;;;19.80;43.00;;;;;;222271;1268;22520;-51
2024/01/14 00:18:11;;;;;;;0.80;0.80;;;19.50;44.00;;;;;;222689;1253;24200;-55
2024/01/14 00:23:18;;;;;;;1.90;1.20;;;19.30;43.80;;;;;;222297;1268;22587;-54
2024/01/14 00:28:34;;;;;;;2.90;1.30;;;19.30;43.90;;;;;;222549;1266;22523;-58
2024/01/14 00:33:41;;;;;;;2.20;1.10;;;19.20;44.00;;;;;;222673;1265;22744;-58
2024/01/14 00:38:49;;;;;;;1.00;0.90;;;19.20;44.00;;;;;;222360;1260;24175;-57
2024/01/14 00:43:56;;;;;;;3.70;1.40;;;19.10;44.00;;;;;;222955;1260;22586;-56
2024/01/14 00:49:01;;;;;;;7.30;1.90;;;19.10;44.10;;;;;;222619;1267;24379;-59
2024/01/14 00:54:08;;;;;;;2.90;1.40;;;19.10;44.10;;;;;;222549;1266;22531;-58
2024/01/14 00:59:18;;;;;;;1.70;1.10;;;19.10;44.00;;;;;;222444;1265;23274;-56
2024/01/14 01:04:22;;;;;;;2.90;1.20;;;19.10;44.10;;;;;;223170;1265;22518;-57
2024/01/14 01:09:27;;;;;;;9.30;2.40;;;19.10;44.00;;;;;;222687;1265;25329;-56
2024/01/14 01:14:32;;;;;;;4.10;1.60;;;19.00;44.10;;;;;;222427;1263;24262;-54
2024/01/14 01:19:46;;;;;;;2.70;1.40;;;19.00;44.10;;;;;;222947;1260;22737;-54
2024/01/14 01:25:01;;;;;;;10.50;2.50;;;19.00;44.50;;;;;;222609;1264;22515;-57
2024/01/14 01:30:14;;;;;;;1.80;1.20;;;18.90;44.70;;;;;;222513;1260;22554;-57
2024/01/14 01:35:19;;;;;;;2.60;1.40;;;19.30;43.60;;;;;;222944;1264;22523;-57
2024/01/14 01:40:23;;;;;;;2.30;1.30;;;19.90;42.40;;;;;;222362;1266;22518;-58
2024/01/14 01:45:28;;;;;;;3.80;1.60;;;20.40;41.80;;;;;;222351;1266;22537;-58
2024/01/14 01:50:35;;;;;;;1.30;1.00;;;20.50;41.50;;;;;;223008;1260;22530;-58
2024/01/14 01:55:41;;;;;;;5.50;1.70;;;20.50;41.30;;;;;;222395;1267;24197;-58
2024/01/14 02:01:06;;;;;;;2.00;1.20;;;20.20;42.00;;;;;;222483;1260;22534;-55
2024/01/14 02:06:12;;;;;;;1.50;1.00;;;20.20;42.20;;;;;;222433;1253;24215;-58
2024/01/14 02:11:20;;;;;;;2.40;1.20;;;20.10;42.20;;;;;;222397;1267;22518;-55
2024/01/14 02:16:27;;;;;;;8.40;2.30;;;19.60;43.60;;;;;;222408;1268;23828;-57
2024/01/14 02:21:54;;;;;;;2.00;0.90;;;19.40;43.70;;;;;;222708;1265;22514;-57
2024/01/14 02:26:58;;;;;;;3.30;1.50;;;19.30;43.50;;;;;;222575;1266;23804;-57
2024/01/14 02:32:26;;;;;;;3.10;1.30;;;19.20;43.60;;;;;;222363;1263;24268;-55
2024/01/14 02:37:35;;;;;;;0.90;0.70;;;19.20;43.70;;;;;;221948;1261;22544;-55
2024/01/14 02:42:40;;;;;;;4.20;1.60;;;19.20;43.80;;;;;;222066;1266;22530;-57
2024/01/14 02:47:53;;;;;;;1.20;0.80;;;19.20;44.10;;;;;;221840;1263;24546;-54
2024/01/14 02:53:00;;;;;;;3.20;1.20;;;19.20;43.70;;;;;;222322;1260;22517;-57
2024/01/14 02:58:07;;;;;;;2.20;1.10;;;19.10;44.10;;;;;;221583;1269;23022;-56
2024/01/14 03:03:14;;;;;;;3.80;1.40;;;19.20;43.70;;;;;;221612;1272;23588;-56
2024/01/14 03:08:19;;;;;;;5.90;1.70;;;19.10;43.80;;;;;;221202;1272;22527;-55
2024/01/14 03:13:26;;;;;;;2.10;1.40;;;19.10;44.10;;;;;;221430;1260;23328;-57
2024/01/14 03:18:31;;;;;;;2.90;1.30;;;19.00;43.80;;;;;;222518;1263;22518;-57
2024/01/14 03:23:36;;;;;;;1.10;0.70;;;19.00;43.80;;;;;;222074;1268;24269;-56
2024/01/14 03:28:41;;;;;;;1.60;1.20;;;18.90;43.80;;;;;;222220;1268;24225;-56
2024/01/14 03:33:46;;;;;;;3.20;1.20;;;18.90;43.90;;;;;;222420;1265;23870;-54
2024/01/14 03:38:50;;;;;;;5.20;1.60;;;19.00;43.80;;;;;;222742;1263;25463;-56
2024/01/14 03:43:54;;;;;;;1.80;1.00;;;19.60;42.90;;;;;;222685;1252;25539;-56
2024/01/14 03:48:58;;;;;;;4.60;1.80;;;20.20;42.00;;;;;;222372;1266;22575;-57
2024/01/14 03:54:04;;;;;;;3.10;1.30;;;20.50;41.40;;;;;;222455;1267;22520;-56
2024/01/14 03:59:17;;;;;;;2.70;1.10;;;20.50;41.50;;;;;;222534;1267;23167;-56
2024/01/14 04:04:22;;;;;;;1.40;0.80;;;20.40;41.40;;;;;;223011;1266;23547;-56
2024/01/14 04:09:27;;;;;;;0.80;0.60;;;20.30;41.70;;;;;;222593;1266;22520;-58
2024/01/14 04:14:31;;;;;;;0.70;0.70;;;20.20;42.00;;;;;;222512;1261;22519;-57
2024/01/14 04:19:36;;;;;;;1.50;1.00;;;19.90;42.70;;;;;;222712;1267;23135;-57
2024/01/14 04:24:44;;;;;;;0.80;0.60;;;19.70;43.00;;;;;;222752;1266;25236;-56
2024/01/14 04:29:48;;;;;;;1.90;0.70;;;19.40;43.30;;;;;;222647;1266;25315;-57
2024/01/14 04:34:55;;;;;;;2.80;1.30;;;19.30;43.50;;;;;;222561;1268;24249;-57
2024/01/14 04:40:03;;;;;;;1.60;0.80;;;19.20;43.50;;;;;;222858;1266;22578;-55
2024/01/14 04:45:11;;;;;;;1.30;0.70;;;19.20;43.70;;;;;;222292;1266;22524;-56
2024/01/14 04:50:18;;;;;;;2.50;1.00;;;19.20;43.60;;;;;;221977;1263;22550;-56
2024/01/14 04:55:23;;;;;;;2.40;1.00;;;19.10;43.70;;;;;;222521;1266;24221;-57
2024/01/14 05:00:27;;;;;;;4.20;1.50;;;19.20;43.70;;;;;;222376;1268;24188;-58
2024/01/14 05:05:35;;;;;;;0.70;0.60;;;19.20;43.60;;;;;;222141;1260;24197;-56
2024/01/14 05:10:39;;;;;;;2.90;1.30;;;19.10;43.50;;;;;;222135;1266;23641;-56
2024/01/14 05:15:55;;;;;;;6.10;1.70;;;19.10;43.60;;;;;;222506;1261;22542;-57
2024/01/14 05:21:23;;;;;;;4.30;1.10;;;19.10;43.70;;;;;;222118;1268;22497;-53
2024/01/14 05:26:27;;;;;;;1.80;1.00;;;19.10;43.70;;;;;;222234;1263;25015;-57
2024/01/14 05:31:32;;;;;;;2.80;1.20;;;19.10;43.50;;;;;;222394;1268;22658;-55
2024/01/14 05:36:36;;;;;;;2.10;0.80;;;19.10;43.90;;;;;;222547;1260;23416;-58
2024/01/14 05:41:40;;;;;;;0.50;0.50;;;19.00;43.50;;;;;;222361;1266;25350;-58
2024/01/14 05:46:45;;;;;;;1.90;1.10;;;19.00;43.60;;;;;;221576;1267;652165;-58
2024/01/14 05:51:49;;;;;;;1.70;0.90;;;18.90;43.70;;;;;;222882;1266;23522;-57
2024/01/14 05:56:57;;;;;;;1.50;0.90;;;18.90;43.80;;;;;;222647;1264;24200;-56
2024/01/14 06:02:09;;;;;;;3.20;1.20;;;18.80;43.80;;;;;;222295;1266;22517;-57
2024/01/14 06:07:14;;;;;;;1.70;0.80;;;18.80;43.40;;;;;;222516;1266;22517;-56
2024/01/14 06:12:19;;;;;;;1.00;0.70;;;18.70;44.20;;;;;;223094;1268;22513;-57
2024/01/14 06:17:27;;;;;;;1.50;0.70;;;18.70;43.80;;;;;;223362;1264;22716;-58
2024/01/14 06:22:31;;;;;;;1.50;0.90;;;18.60;44.00;;;;;;222762;1266;22595;-57
2024/01/14 06:27:39;;;;;;;1.10;0.80;;;18.60;44.40;;;;;;222715;1266;25473;-57
2024/01/14 06:32:44;;;;;;;1.40;0.60;;;18.50;44.30;;;;;;222609;1266;27662;-58
2024/01/14 06:37:57;;;;;;;1.40;1.00;;;18.50;44.30;;;;;;222393;1264;23901;-55
2024/01/14 06:43:03;;;;;;;1.30;0.80;;;18.40;44.30;;;;;;222785;1245;23772;-56
2024/01/14 06:48:31;;;;;;;1.10;0.80;;;18.40;44.30;;;;;;222948;1267;24224;-58
2024/01/14 06:53:39;;;;;;;1.10;0.70;;;18.90;43.60;;;;;;222844;1267;24336;-57
2024/01/14 06:58:52;;;;;;;3.90;1.00;;;19.60;42.60;;;;;;223004;1246;22520;-57
2024/01/14 07:03:57;;;;;;;2.50;1.00;;;20.00;41.80;;;;;;222133;1267;22625;-57
2024/01/14 07:09:04;;;;;;;4.30;1.20;;;20.20;41.40;;;;;;222396;1267;22542;-57
2024/01/14 07:14:09;;;;;;;3.60;1.00;;;20.10;41.80;;;;;;222938;1267;22517;-58
2024/01/14 07:19:18;;;;;;;2.30;0.60;;;20.00;41.60;;;;;;222561;1267;22655;-57
2024/01/14 07:24:28;;;;;;;2.20;0.80;;;19.80;42.30;;;;;;222300;1261;23800;-56
2024/01/14 07:29:38;;;;;;;1.40;0.80;;;19.60;42.30;;;;;;222451;1264;25466;-56
2024/01/14 07:34:54;;;;;;;4.10;0.80;;;19.30;43.00;;;;;;222033;1261;24207;-57
2024/01/14 07:40:05;;;;;;;0.60;0.50;;;19.10;43.60;;;;;;221965;1268;23885;-57
2024/01/14 07:45:14;;;;;;;1.20;0.70;;;19.00;43.60;;;;;;222235;1268;22544;-58
2024/01/14 07:50:19;;;;;;;0.50;0.50;;;19.00;44.00;;;;;;222235;1261;22641;-54
2024/01/14 07:55:29;;;;;;;0.90;0.60;;;19.00;44.00;;;;;;222317;1261;22678;-57
2024/01/14 08:00:35;;;;;;;1.00;0.80;;;18.90;43.70;;;;;;222165;1268;24374;-56
2024/01/14 08:05:46;;;;;;;0.60;0.60;;;18.90;43.70;;;;;;222092;1268;22520;-57
2024/01/14 08:10:54;;;;;;;1.10;0.70;;;18.90;44.10;;;;;;222185;1268;23463;-55
2024/01/14 08:16:05;;;;;;;1.00;0.60;;;18.80;43.80;;;;;;222684;1268;24371;-56
2024/01/14 08:21:19;;;;;;;1.10;0.60;;;18.90;43.70;;;;;;221738;1267;24226;-56
2024/01/14 08:26:25;;;;;;;3.40;1.20;;;18.90;43.50;;;;;;225455;1268;23274;-56
2024/01/14 08:31:33;;;;;;;1.40;0.60;;;18.90;43.60;;;;;;222630;1268;24979;-56
2024/01/14 08:36:39;;;;;;;0.90;0.50;;;18.80;43.50;;;;;;222656;1261;23289;-55
2024/01/14 08:41:44;;;;;;;1.10;0.80;;;18.80;44.00;;;;;;221602;1261;25231;-53
2024/01/14 08:46:52;;;;;;;1.50;0.70;;;18.70;43.80;;;;;;221954;1255;24632;-57
2024/01/14 08:51:56;;;;;;;4.30;1.20;;;18.70;43.80;;;;;;221947;1260;24377;-55
2024/01/14 08:57:04;;;;;;;2.90;1.30;;;18.70;43.70;;;;;;222245;1260;22994;-57
2024/01/14 09:02:10;;;;;;;1.30;0.90;;;18.70;43.80;;;;;;222643;1264;25269;-53
2024/01/14 09:07:17;;;;;;;4.50;1.40;;;18.70;43.70;;;;;;222374;1246;22548;-56
2024/01/14 09:12:22;;;;;;;1.90;0.80;;;18.60;43.70;;;;;;222217;1268;22572;-58
2024/01/14 09:17:29;;;;;;;1.20;0.60;;;18.60;43.80;;;;;;222383;1267;23005;-55
2024/01/14 09:22:33;;;;;;;0.60;0.50;;;18.60;43.90;;;;;;222668;1268;22520;-58
2024/01/14 09:27:38;;;;;;;1.50;0.70;;;18.60;44.10;;;;;;222118;1261;24242;-57
2024/01/14 09:32:43;;;;;;;0.70;0.50;;;19.30;43.00;;;;;;222946;1260;25264;-55
2024/01/14 09:37:50;;;;;;;0.80;0.70;;;19.80;42.10;;;;;;221240;1273;24208;-56
2024/01/14 09:42:59;;;;;;;0.30;0.30;;;20.10;41.30;;;;;;221435;1262;22535;-57
2024/01/14 09:48:04;;;;;;;1.50;0.80;;;20.20;41.50;;;;;;221547;1267;25310;-57
2024/01/14 09:53:09;;;;;;;2.00;0.80;;;20.10;41.50;;;;;;221477;1267;25249;-56
2024/01/14 09:58:14;;;;;;;2.10;0.70;;;19.90;41.80;;;;;;222740;1261;22522;-56
2024/01/14 10:03:20;;;;;;;0.70;0.50;;;19.90;42.10;;;;;;222478;1261;22517;-57
2024/01/14 10:08:28;;;;;;;0.60;0.40;;;19.60;42.80;;;;;;222235;1263;26329;-57
2024/01/14 10:13:35;;;;;;;2.40;0.90;;;19.50;42.30;;;;;;222161;1260;22603;-57
2024/01/14 10:18:43;;;;;;;1.40;0.50;;;19.30;43.20;;;;;;222613;1253;24066;-55
2024/01/14 10:23:47;;;;;;;1.50;0.70;;;19.20;43.20;;;;;;222362;1259;24203;-58
2024/01/14 10:28:59;;;;;;;0.30;0.30;;;19.20;43.10;;;;;;222499;1267;25527;-57
2024/01/14 10:34:09;;;;;;;0.60;0.60;;;19.10;43.80;;;;;;222866;1260;23739;-58
2024/01/14 10:39:14;;;;;;;4.40;1.40;;;19.10;43.10;;;;;;222554;1264;24674;-57
2024/01/14 10:44:19;;;;;;;2.40;0.90;;;19.10;43.30;;;;;;222278;1261;24209;-56
2024/01/14 10:49:27;;;;;;;5.40;1.50;;;19.10;43.30;;;;;;222631;1261;22675;-57
2024/01/14 10:54:38;;;;;;;1.80;0.60;;;19.10;43.20;;;;;;222251;1261;22626;-58
2024/01/14 10:59:56;;;;;;;3.80;1.40;;;19.00;43.60;;;;;;222139;1260;22527;-56
2024/01/14 11:05:00;;;;;;;3.80;1.00;;;19.00;43.30;;;;;;222251;1244;24666;-57
2024/01/14 11:10:15;;;;;;;2.40;0.80;;;18.90;43.40;;;;;;222229;1261;27662;-58
2024/01/14 11:15:24;;;;;;;0.50;0.50;;;18.80;43.70;;;;;;222427;1266;22526;-57
2024/01/14 11:20:37;;;;;;;2.00;0.70;;;18.80;44.10;;;;;;222426;1262;25232;-58
2024/01/14 11:26:20;;;;;;;;;;;;;;;;;;;;;
2024/01/14 11:32:08;;;;;;;1.50;0.80;;;18.80;43.70;;;;;;221171;1272;22567;-57
2024/01/14 11:37:40;;;;;;;3.80;1.20;;;18.70;43.70;;;;;;220181;1278;25435;-56
2024/01/14 11:42:53;;;;;;;2.40;0.90;;;18.70;43.90;;;;;;220153;1278;22536;-57
2024/01/14 11:48:03;;;;;;;6.00;1.40;;;18.70;43.70;;;;;;220501;1268;24312;-57
2024/01/14 11:53:20;;;;;;;6.00;1.30;;;18.70;43.80;;;;;;221168;1269;23486;-57
2024/01/14 11:58:45;;;;;;;;;;;;;;;;;;;;;
2024/01/14 12:04:03;;;;;;;;;;;18.80;43.50;;;;;;220598;1273;25588;-58
2024/01/14 12:09:11;;;;;;;2.60;1.10;;;19.50;42.40;;;;;;221072;1275;24192;-56
2024/01/14 12:14:19;;;;;;;0.80;0.70;;;20.00;41.50;;;;;;222458;1261;24231;-56
2024/01/14 12:19:28;;;;;;;2.40;0.90;;;20.20;41.20;;;;;;222601;1266;22536;-57
2024/01/14 12:24:34;;;;;;;2.80;1.30;;;20.10;41.60;;;;;;222713;1260;25359;-56
2024/01/14 12:29:38;;;;;;;0.40;0.40;;;19.90;41.70;;;;;;222778;1263;25559;-54
2024/01/14 12:34:47;;;;;;;5.20;1.40;;;19.80;42.00;;;;;;221380;1262;24249;-58
2024/01/14 12:39:54;;;;;;;1.70;0.70;;;19.70;42.30;;;;;;221111;1273;22542;-57
2024/01/14 12:45:05;;;;;;;6.00;1.40;;;19.60;42.70;;;;;;221136;1273;22619;-57
2024/01/14 12:50:17;;;;;;;4.10;1.20;;;19.40;42.70;;;;;;221322;1260;24220;-56
2024/01/14 12:55:22;;;;;;;1.80;0.90;;;19.50;42.60;;;;;;222151;1265;22552;-58
2024/01/14 13:00:34;;;;;;;2.40;0.90;;;19.30;43.20;;;;;;222082;1264;24186;-56
2024/01/14 13:05:42;;;;;;;1.50;0.80;;;19.40;42.70;;;;;;221831;1268;24333;-57
2024/01/14 13:10:47;;;;;;;0.70;0.60;;;19.40;42.80;;;;;;222193;1257;25288;-57
2024/01/14 13:15:52;;;;;;;5.00;1.50;;;19.40;42.80;;;;;;222455;1261;22670;-57
2024/01/14 13:21:00;;;;;;;2.90;1.30;;;19.20;43.20;;;;;;222582;1265;24091;-57
2024/01/14 13:26:28;;;;;;;3.50;1.30;;;19.10;43.10;;;;;;222343;1261;24252;-57
2024/01/14 13:31:35;;;;;;;3.70;1.40;;;19.10;43.10;;;;;;221127;1274;25356;-56
2024/01/14 13:36:39;;;;;;;2.50;1.00;;;19.10;43.30;;;;;;221464;1261;25334;-58
2024/01/14 13:41:50;;;;;;;2.50;1.00;;;19.00;43.30;;;;;;221230;1267;22545;-57
2024/01/14 13:46:57;;;;;;;4.50;1.20;;;18.90;43.40;;;;;;221345;1265;25770;-58
2024/01/14 13:52:11;;;;;;;2.50;0.90;;;18.90;43.50;;;;;;222225;1262;22660;-56
2024/01/14 13:57:22;;;;;;;4.30;1.10;;;18.90;43.40;;;;;;222100;1263;22977;-55
2024/01/14 14:02:28;;;;;;;2.00;0.90;;;18.90;43.80;;;;;;222628;1268;23856;-55
2024/01/14 14:07:35;;;;;;;0.60;0.60;;;18.80;43.50;;;;;;222173;1267;22530;-57
2024/01/14 14:12:40;;;;;;;1.20;0.80;;;18.80;43.90;;;;;;222104;1258;22639;-54
2024/01/14 14:17:50;;;;;;;1.30;0.60;;;18.70;43.90;;;;;;221965;1256;25348;-56
2024/01/14 14:23:02;;;;;;;6.40;1.80;;;18.80;43.40;;;;;;222282;1265;24252;-57
2024/01/14 14:28:16;;;;;;;1.20;0.70;;;18.80;43.40;;;;;;222227;1265;23767;-58
2024/01/14 14:33:20;;;;;;;0.80;0.70;;;18.70;43.40;;;;;;221948;1266;25303;-57
2024/01/14 14:38:54;;;;;;;2.60;0.80;;;18.80;43.30;;;;;;222477;1265;24264;-56
2024/01/14 14:43:58;;;;;;;5.80;1.10;;;19.40;42.50;;;;;;222278;1264;22536;-54
2024/01/14 14:49:04;;;;;;;0.40;0.40;;;19.90;41.50;;;;;;222137;1262;26517;-57
2024/01/14 14:54:09;;;;;;;3.00;1.10;;;20.20;41.10;;;;;;222347;1265;22693;-57
2024/01/14 14:59:37;;;;;;;0.60;0.50;;;20.20;41.00;;;;;;222411;1264;22580;-58
2024/01/14 15:04:42;;;;;;;1.80;0.90;;;20.00;41.70;;;;;;222323;1266;24256;-57
2024/01/14 15:09:50;;;;;;;0.60;0.40;;;20.00;41.40;;;;;;222557;1262;25407;-57
2024/01/14 15:14:57;;;;;;;3.30;1.00;;;19.80;41.70;;;;;;222360;1264;23092;-57
2024/01/14 15:20:48;;;;;;;3.90;1.40;;;19.70;42.00;;;;;;222219;1262;23791;-54
2024/01/14 15:26:03;;;;;;;11.60;2.30;;;19.40;42.60;;;;;;222680;1257;26590;-58
2024/01/14 15:31:19;;;;;;;;;;;;;;;;;;;;;
2024/01/14 15:36:44;;;;;;;1.30;0.60;;;19.10;42.90;;;;;;222215;1262;23847;-56
2024/01/14 15:41:54;;;;;;;0.70;0.60;;;19.00;43.20;;;;;;222528;1265;25336;-54
2024/01/14 15:47:04;;;;;;;0.70;0.60;;;19.00;43.30;;;;;;222570;1250;24189;-56
2024/01/14 15:52:25;;;;;;;1.00;0.50;;;19.00;43.20;;;;;;222151;1268;24344;-56
2024/01/14 15:57:51;;;;;;;3.40;0.80;;;19.00;43.20;;;;;;222484;1261;24308;-57
2024/01/14 16:02:59;;;;;;;1.00;0.90;;;18.90;43.20;;;;;;222435;1262;22541;-56
2024/01/14 16:08:13;;;;;;;2.30;0.90;;;19.00;43.20;;;;;;222330;1263;23921;-59
2024/01/14 16:13:27;;;;;;;1.50;0.60;;;19.00;43.10;;;;;;222375;1256;22625;-55
2024/01/14 16:18:53;;;;;;;3.10;1.00;;;19.00;43.10;;;;;;222431;1267;22626;-55
2024/01/14 16:24:10;;;;;;;1.70;0.80;;;18.90;43.20;;;;;;222547;1265;22538;-58
2024/01/14 16:29:25;;;;;;;1.30;0.90;;;18.90;43.10;;;;;;222317;1253;22564;-57
2024/01/14 16:34:49;;;;;;;1.80;0.80;;;18.80;43.30;;;;;;222319;1266;22622;-57
2024/01/14 16:40:04;;;;;;;1.90;0.80;;;18.80;43.20;;;;;;222492;1264;22630;-58
2024/01/14 16:45:26;;;;;;;11.90;2.40;;;18.80;43.10;;;;;;222329;1266;22525;-56
2024/01/14 16:50:33;;;;;;;6.20;1.30;;;18.80;43.10;;;;;;223017;1264;24109;-57
2024/01/14 16:55:48;;;;;;;10.70;1.90;;;18.80;43.20;;;;;;221242;1262;25982;-57
2024/01/14 17:00:55;;;;;;;2.40;1.00;;;19.40;42.40;;;;;;221819;1271;22524;-58
2024/01/14 17:06:18;;;;;;;7.20;1.40;;;20.00;41.70;;;;;;221124;1260;23889;-57
2024/01/14 17:11:32;;;;;;;1.60;0.90;;;20.30;40.80;;;;;;221623;1266;25417;-58
2024/01/14 17:16:37;;;;;;;0.70;0.60;;;20.30;40.80;;;;;;222799;1264;22532;-56
2024/01/14 17:21:44;;;;;;;0.50;0.40;;;20.20;41.40;;;;;;222132;1253;24161;-57
2024/01/14 17:26:49;;;;;;;1.30;0.60;;;19.90;41.50;;;;;;222021;1259;24274;-57
2024/01/14 17:32:24;;;;;;;;;;;;;;;;;;;;;
2024/01/14 17:37:31;;;;;;;1.40;0.80;;;19.40;42.50;;;;;;221973;1264;22537;-55
2024/01/14 17:42:37;;;;;;;3.60;0.90;;;19.20;43.00;;;;;;221451;1255;26547;-55
2024/01/14 17:48:00;;;;;;;3.90;1.30;;;19.10;43.00;;;;;;217588;1269;5519665;-57
2024/01/14 17:53:18;;;;;;;5.10;1.50;;;19.10;43.00;;;;;;221858;1270;25244;-57
2024/01/14 17:58:46;;;;;;;3.90;1.10;;;19.00;43.00;;;;;;221634;1262;22520;-56
2024/01/14 18:03:51;;;;;;;1.40;0.70;;;19.00;43.10;;;;;;221024;1275;22531;-56
2024/01/14 18:09:04;;;;;;;3.00;1.00;;;19.00;43.00;;;;;;220950;1261;24204;-58
2024/01/14 18:14:40;;;;;;;2.60;1.20;;;18.90;43.10;;;;;;221135;1275;24180;-57
2024/01/14 18:20:07;;;;;;;2.90;1.10;;;18.90;43.10;;;;;;221082;1266;22530;-55
2024/01/14 18:25:22;;;;;;;15.90;2.80;;;18.90;43.20;;;;;;220894;1274;24377;-57
2024/01/14 18:30:32;;;;;;;8.90;1.80;;;18.90;43.10;;;;;;220736;1270;22530;-56
2024/01/14 18:35:59;;;;;;;21.00;3.30;;;18.90;43.10;;;;;;221054;1269;24179;-56
2024/01/14 18:41:34;;;;;;;2.50;1.20;;;18.80;43.20;;;;;;222034;1267;25252;-55
2024/01/14 18:47:19;;;;;;;0.90;0.70;;;18.80;43.30;;;;;;222403;1245;24204;-58
2024/01/14 18:52:43;;;;;;;3.60;1.40;;;18.80;43.10;;;;;;220855;1272;22617;-54
2024/01/14 18:58:23;;;;;;;3.10;1.20;;;18.80;43.00;;;;;;220958;1269;24184;-56
2024/01/14 19:03:46;;;;;;;4.40;1.20;;;18.90;43.00;;;;;;220792;1272;23625;-57
2024/01/14 19:09:24;;;;;;;9.10;2.10;;;18.80;43.30;;;;;;220652;1275;24200;-57
2024/01/14 19:14:37;;;;;;;12.50;2.80;;;18.70;43.20;;;;;;220981;1272;25437;-57
2024/01/14 19:20:07;;;;;;;;;;;;;;;;;;;;;
2024/01/14 19:25:24;;;;;;;1.60;0.80;;;19.80;41.50;;;;;;220372;1272;22525;-58
2024/01/14 19:30:38;;;;;;;1.20;0.80;;;20.10;41.20;;;;;;222173;1265;24327;-60
2024/01/14 19:35:44;;;;;;;1.00;0.60;;;20.20;40.90;;;;;;222312;1260;25347;-57
2024/01/14 19:40:53;;;;;;;2.20;1.00;;;20.10;41.10;;;;;;222234;1265;26138;-55
2024/01/14 19:46:01;;;;;;;1.90;0.90;;;20.00;41.20;;;;;;222329;1260;24492;-58
2024/01/14 19:51:14;;;;;;;2.20;1.20;;;19.60;42.60;;;;;;222456;1266;22523;-55
2024/01/14 19:56:25;;;;;;;1.70;1.10;;;19.50;42.60;;;;;;222506;1260;23963;-56
2024/01/14 20:01:41;;;;;;;2.60;1.20;;;19.40;42.50;;;;;;222589;1262;22521;-57
2024/01/14 20:07:06;;;;;;;3.80;1.30;;;19.40;42.50;;;;;;222381;1265;22513;-55
2024/01/14 20:12:36;;;;;;;1.70;0.90;;;19.30;42.80;;;;;;222389;1246;24234;-58
2024/01/14 20:18:05;;;;;;;1.90;1.00;;;19.30;42.40;;;;;;222601;1267;22525;-57
2024/01/14 20:23:27;;;;;;;4.90;1.40;;;19.20;42.90;;;;;;222583;1267;25249;-55
2024/01/14 20:28:54;;;;;;;23.00;3.80;;;19.20;42.90;;;;;;222788;1263;22540;-56
2024/01/14 20:34:27;;;;;;;3.00;1.20;;;19.00;42.40;;;;;;222922;1266;25400;-58
2024/01/14 20:40:01;;;;;;;1.00;0.80;;;19.00;43.00;;;;;;222479;1262;22556;-58
2024/01/14 20:45:06;;;;;;;2.30;1.20;;;18.90;42.50;;;;;;222511;1257;22629;-56
2024/01/14 20:50:19;;;;;;;1.10;0.80;;;18.80;43.00;;;;;;222418;1261;22541;-54
2024/01/14 20:55:27;;;;;;;1.30;1.10;;;18.80;43.10;;;;;;222115;1262;24675;-58
2024/01/14 21:01:09;;;;;;;2.20;1.20;;;18.80;43.10;;;;;;222313;1261;24068;-57
2024/01/14 21:06:36;;;;;;;;;;;;;;;;;;;;;
2024/01/14 21:12:03;;;;;;;3.20;1.20;;;18.70;43.10;;;;;;221975;1247;22541;-57
2024/01/14 21:17:29;;;;;;;13.90;2.90;;;18.90;43.00;;;;;;222331;1267;23935;-57
2024/01/14 21:22:44;;;;;;;5.40;1.50;;;19.50;42.00;;;;;;222337;1265;24180;-56
2024/01/14 21:27:48;;;;;;;5.40;1.70;;;20.10;41.00;;;;;;222646;1265;26536;-53
2024/01/14 21:32:57;;;;;;;5.20;1.70;;;20.40;40.50;;;;;;222174;1267;23965;-55
2024/01/14 21:38:05;;;;;;;6.10;1.80;;;20.60;40.40;;;;;;222667;1267;24372;-55
2024/01/14 21:43:12;;;;;;;3.40;1.60;;;20.50;40.50;;;;;;222376;1262;25340;-58
2024/01/14 21:48:26;;;;;;;7.70;1.80;;;20.20;40.80;;;;;;222940;1265;25223;-58
2024/01/14 21:53:40;;;;;;;6.10;1.80;;;20.20;41.10;;;;;;222065;1267;23935;-54
2024/01/14 21:58:44;;;;;;;3.10;1.10;;;19.70;41.80;;;;;;222403;1265;22636;-57
2024/01/14 22:03:49;;;;;;;2.90;1.40;;;19.60;42.40;;;;;;222467;1268;24204;-57
2024/01/14 22:08:55;;;;;;;4.20;1.60;;;19.50;42.30;;;;;;222597;1250;25290;-55
2024/01/14 22:14:01;;;;;;;3.30;1.50;;;19.40;42.40;;;;;;222738;1260;24476;-56
2024/01/14 22:19:09;;;;;;;3.30;1.40;;;19.40;42.40;;;;;;222370;1260;24325;-57
2024/01/14 22:24:13;;;;;;;3.10;1.50;;;19.40;42.30;;;;;;222426;1265;23552;-58
2024/01/14 22:29:26;;;;;;;2.20;1.40;;;19.30;42.40;;;;;;222690;1265;24294;-58
2024/01/14 22:34:30;;;;;;;2.40;1.40;;;19.30;42.40;;;;;;222447;1267;22516;-57
2024/01/14 22:39:35;;;;;;;2.80;1.70;;;19.20;42.90;;;;;;222632;1265;24648;-57
2024/01/14 22:44:40;;;;;;;3.60;1.80;;;19.10;42.60;;;;;;222575;1266;24006;-54
2024/01/14 22:49:45;;;;;;;2.80;1.90;;;19.00;42.60;;;;;;222416;1260;23727;-57
2024/01/14 22:54:53;;;;;;;3.60;1.70;;;19.00;42.70;;;;;;222528;1267;22643;-57
2024/01/14 22:59:57;;;;;;;4.60;2.00;;;18.90;42.90;;;;;;222939;1244;22632;-57
2024/01/14 23:05:06;;;;;;;5.40;2.00;;;19.00;42.80;;;;;;222407;1267;22825;-56
2024/01/14 23:10:18;;;;;;;4.80;1.90;;;19.70;41.70;;;;;;222366;1263;24173;-55
2024/01/14 23:15:22;;;;;;;1.70;1.20;;;20.20;40.80;;;;;;223194;1266;26621;-55
2024/01/14 23:20:27;;;;;;;1.80;1.40;;;20.60;40.30;;;;;;222857;1268;24365;-58
2024/01/14 23:25:32;;;;;;;1.90;1.20;;;20.70;40.10;;;;;;222790;1265;22550;-56
2024/01/14 23:30:38;;;;;;;1.90;1.20;;;20.50;40.30;;;;;;222853;1262;24836;-57
2024/01/14 23:35:46;;;;;;;3.20;1.50;;;20.40;40.60;;;;;;222281;1267;22711;-58
2024/01/14 23:40:51;;;;;;;3.30;1.40;;;20.10;41.10;;;;;;222510;1260;23955;-57
2024/01/14 23:45:56;;;;;;;3.90;1.70;;;20.10;41.20;;;;;;222565;1267;25281;-57
2024/01/14 23:51:27;;;;;;;;;;;;;;;;;;;;;
2024/01/14 23:56:35;;;;;;;1.70;1.30;;;19.70;41.80;;;;;;222408;1268;22642;-56
